createdAt,value
2022-07-29T00:02:32.884Z,16.93
2022-07-29T00:05:14.473Z,16.89
2022-07-29T00:07:54.488Z,16.91
2022-07-29T00:10:35.193Z,16.92
2022-07-29T00:13:16.065Z,16.94
2022-07-29T00:16:08.870Z,16.97
2022-07-29T00:18:49.638Z,16.99
2022-07-29T00:21:29.326Z,16.96
2022-07-29T00:24:11.250Z,16.98
2022-07-29T00:26:53.032Z,16.97
2022-07-29T00:29:35.700Z,16.90
2022-07-29T00:32:16.982Z,16.91
2022-07-29T00:35:52.760Z,16.89
2022-07-29T00:38:35.339Z,17.01
2022-07-29T00:41:14.742Z,16.93
2022-07-29T00:43:54.594Z,17.02
2022-07-29T00:46:34.413Z,16.98
2022-07-29T00:49:16.204Z,16.99
2022-07-29T00:51:55.738Z,16.91
2022-07-29T00:54:39.171Z,16.92
2022-07-29T00:57:25.571Z,16.88
2022-07-29T01:00:11.440Z,16.88
2022-07-29T01:02:51.218Z,16.92
2022-07-29T01:05:50.710Z,16.92
2022-07-29T01:08:50.715Z,16.85
2022-07-29T01:11:30.221Z,16.91
2022-07-29T01:14:12.664Z,16.84
2022-07-29T01:16:59.254Z,16.83
2022-07-29T01:19:49.871Z,16.73
2022-07-29T01:22:42.845Z,16.73
2022-07-29T01:25:40.569Z,16.75
2022-07-29T01:28:54.822Z,16.55
2022-07-29T01:31:58.757Z,16.52
2022-07-29T01:34:43.638Z,16.53
2022-07-29T01:37:26.535Z,16.62
2022-07-29T01:40:15.909Z,16.51
2022-07-29T01:42:58.654Z,16.52
2022-07-29T01:45:43.089Z,16.56
2022-07-29T01:48:26.373Z,16.46
2022-07-29T01:51:10.182Z,16.42
2022-07-29T01:53:54.025Z,16.39
2022-07-29T01:56:35.365Z,16.42
2022-07-29T01:59:16.326Z,16.29
2022-07-29T02:01:57.380Z,16.17
2022-07-29T02:04:38.163Z,16.26
2022-07-29T02:07:20.573Z,16.12
2022-07-29T02:10:14.020Z,16.21
2022-07-29T02:12:58.345Z,16.18
2022-07-29T02:15:37.702Z,16.08
2022-07-29T02:18:17.876Z,16.18
2022-07-29T02:20:57.856Z,16.19
2022-07-29T02:23:50.391Z,16.22
2022-07-29T02:26:32.246Z,16.26
2022-07-29T02:29:16.008Z,16.17
2022-07-29T02:31:57.249Z,16.09
2022-07-29T02:35:22.171Z,16.15
2022-07-29T02:38:20.373Z,16.13
2022-07-29T02:41:00.917Z,16.17
2022-07-29T02:43:42.066Z,15.97
2022-07-29T02:46:29.615Z,16.03
2022-07-29T02:49:17.558Z,16.02
2022-07-29T02:52:00.735Z,16.05
2022-07-29T02:54:43.405Z,15.95
2022-07-29T02:57:31.076Z,15.97
2022-07-29T03:00:33.691Z,15.90
2022-07-29T03:03:14.521Z,15.87
2022-07-29T03:05:54.515Z,15.94
2022-07-29T03:08:36.216Z,16.04
2022-07-29T03:11:15.805Z,16.06
2022-07-29T03:13:58.582Z,16.07
2022-07-29T03:16:41.292Z,16.09
2022-07-29T03:20:02.971Z,16.08
2022-07-29T03:22:44.696Z,16.05
2022-07-29T03:25:24.271Z,16.10
2022-07-29T03:28:05.075Z,16.04
2022-07-29T03:30:45.694Z,15.97
2022-07-29T03:33:29.911Z,16.05
2022-07-29T03:36:11.940Z,15.94
2022-07-29T03:38:53.997Z,15.95
2022-07-29T03:41:35.956Z,15.92
2022-07-29T03:44:17.991Z,15.95
2022-07-29T03:47:01.063Z,15.81
2022-07-29T03:49:42.338Z,15.89
2022-07-29T03:52:23.582Z,15.87
2022-07-29T03:55:05.794Z,15.85
2022-07-29T03:57:47.399Z,15.70
2022-07-29T04:00:28.028Z,15.79
2022-07-29T04:03:10.827Z,15.60
2022-07-29T04:06:01.692Z,15.63
2022-07-29T04:08:43.279Z,15.76
2022-07-29T04:11:22.679Z,15.66
2022-07-29T04:14:01.185Z,15.76
2022-07-29T04:16:40.631Z,15.83
2022-07-29T04:19:20.479Z,15.77
2022-07-29T04:22:01.964Z,15.63
2022-07-29T04:24:44.544Z,15.64
2022-07-29T04:27:25.124Z,15.74
2022-07-29T04:30:05.123Z,15.80
2022-07-29T04:32:44.293Z,15.68
2022-07-29T04:35:24.150Z,15.56
2022-07-29T04:38:04.013Z,15.51
2022-07-29T04:40:43.710Z,15.42
2022-07-29T04:43:23.719Z,15.58
2022-07-29T04:46:05.394Z,15.50
2022-07-29T04:48:43.677Z,15.70
2022-07-29T04:51:21.718Z,15.76
2022-07-29T04:54:03.274Z,15.75
2022-07-29T04:56:44.561Z,15.85
2022-07-29T04:59:24.333Z,15.85
2022-07-29T05:02:03.864Z,15.74
2022-07-29T05:04:42.400Z,15.85
2022-07-29T05:07:23.837Z,15.70
2022-07-29T05:10:03.247Z,15.76
2022-07-29T05:12:43.042Z,15.73
2022-07-29T05:15:22.828Z,15.78
2022-07-29T05:18:01.708Z,15.89
2022-07-29T05:20:45.532Z,15.94
2022-07-29T05:23:36.002Z,15.86
2022-07-29T05:26:15.414Z,15.95
2022-07-29T05:28:55.856Z,15.94
2022-07-29T05:31:37.069Z,16.10
2022-07-29T05:34:16.970Z,16.09
2022-07-29T05:36:57.840Z,15.96
2022-07-29T05:39:48.918Z,16.08
2022-07-29T05:42:30.415Z,16.30
2022-07-29T05:45:11.009Z,16.27
2022-07-29T05:47:53.513Z,16.47
2022-07-29T05:50:31.661Z,16.33
2022-07-29T05:53:19.445Z,16.59
2022-07-29T05:56:21.756Z,16.75
2022-07-29T05:59:01.128Z,16.88
2022-07-29T06:01:41.171Z,16.94
2022-07-29T06:04:23.791Z,16.98
2022-07-29T06:07:06.224Z,16.85
2022-07-29T06:09:46.738Z,17.14
2022-07-29T06:12:28.563Z,17.22
2022-07-29T06:15:11.334Z,17.25
2022-07-29T06:18:00.777Z,17.36
2022-07-29T06:20:42.060Z,17.34
2022-07-29T06:23:21.911Z,17.22
2022-07-29T06:26:03.790Z,17.20
2022-07-29T06:28:44.953Z,17.25
2022-07-29T06:31:24.505Z,17.47
2022-07-29T06:34:04.375Z,17.57
2022-07-29T06:36:46.016Z,17.61
2022-07-29T06:39:27.422Z,17.73
2022-07-29T06:42:09.053Z,17.81
2022-07-29T06:44:49.881Z,17.89
2022-07-29T06:47:30.005Z,17.92
2022-07-29T06:50:12.739Z,17.82
2022-07-29T06:52:52.457Z,18.11
2022-07-29T06:56:14.846Z,18.23
2022-07-29T06:58:54.243Z,18.38
2022-07-29T07:01:34.147Z,18.51
2022-07-29T07:04:14.576Z,18.56
2022-07-29T07:06:57.508Z,18.81
2022-07-29T07:09:40.501Z,19.03
2022-07-29T07:12:23.289Z,18.97
2022-07-29T07:15:02.693Z,19.12
2022-07-29T07:17:42.534Z,19.23
2022-07-29T07:20:22.366Z,19.41
2022-07-29T07:23:05.528Z,19.56
2022-07-29T07:25:47.141Z,19.81
2022-07-29T07:28:26.509Z,20.16
2022-07-29T07:31:08.406Z,20.29
2022-07-29T07:33:48.505Z,20.24
2022-07-29T07:36:31.346Z,20.42
2022-07-29T07:39:12.565Z,20.61
2022-07-29T07:42:14.790Z,20.45
2022-07-29T07:45:12.643Z,20.43
2022-07-29T07:47:53.157Z,20.39
2022-07-29T07:50:31.787Z,20.47
2022-07-29T07:53:11.640Z,20.44
2022-07-29T07:56:09.952Z,20.36
2022-07-29T07:58:51.629Z,20.21
2022-07-29T08:01:31.485Z,20.32
2022-07-29T08:04:34.504Z,20.40
2022-07-29T08:07:17.013Z,20.40
2022-07-29T08:09:56.424Z,20.46
2022-07-29T08:12:36.226Z,20.44
2022-07-29T08:15:14.850Z,20.36
2022-07-29T08:17:54.276Z,20.17
2022-07-29T08:20:37.081Z,20.15
2022-07-29T08:23:19.930Z,20.31
2022-07-29T08:26:13.797Z,20.43
2022-07-29T08:28:53.246Z,20.40
2022-07-29T08:31:33.191Z,20.43
2022-07-29T08:34:12.848Z,20.42
2022-07-29T08:36:52.918Z,20.52
2022-07-29T08:39:31.291Z,20.42
2022-07-29T08:42:10.754Z,20.36
2022-07-29T08:44:52.672Z,20.49
2022-07-29T08:47:32.038Z,20.62
2022-07-29T08:50:13.965Z,20.48
2022-07-29T08:52:57.943Z,20.55
2022-07-29T08:55:41.925Z,20.80
2022-07-29T08:58:25.507Z,20.68
2022-07-29T09:01:12.479Z,20.72
2022-07-29T09:03:57.050Z,20.74
2022-07-29T09:06:39.836Z,20.89
2022-07-29T09:09:19.271Z,20.92
2022-07-29T09:12:00.765Z,21.02
2022-07-29T09:14:40.782Z,21.11
2022-07-29T09:17:20.839Z,21.35
2022-07-29T09:20:10.899Z,21.15
2022-07-29T09:22:54.374Z,21.63
2022-07-29T09:25:38.276Z,21.89
2022-07-29T09:28:19.635Z,22.07
2022-07-29T09:31:00.848Z,22.03
2022-07-29T09:33:42.948Z,22.43
2022-07-29T09:36:22.840Z,22.54
2022-07-29T09:39:04.926Z,22.36
2022-07-29T09:41:48.927Z,22.58
2022-07-29T09:44:28.893Z,22.75
2022-07-29T09:47:08.775Z,22.36
2022-07-29T09:49:56.133Z,22.72
2022-07-29T09:52:47.177Z,23.01
2022-07-29T09:55:27.107Z,23.32
2022-07-29T09:58:19.094Z,23.62
2022-07-29T10:00:59.573Z,23.80
2022-07-29T10:03:54.509Z,23.84
2022-07-29T10:06:34.145Z,23.98
2022-07-29T10:09:13.176Z,23.62
2022-07-29T10:12:07.017Z,23.89
2022-07-29T10:14:49.233Z,24.04
2022-07-29T10:17:30.016Z,24.21
2022-07-29T10:20:13.601Z,23.99
2022-07-29T10:22:57.423Z,24.04
2022-07-29T10:25:37.935Z,23.93
2022-07-29T10:28:18.222Z,24.08
2022-07-29T10:31:15.733Z,23.65
2022-07-29T10:34:05.042Z,24.13
2022-07-29T10:37:10.886Z,24.28
2022-07-29T10:39:56.422Z,24.44
2022-07-29T10:43:01.853Z,24.35
2022-07-29T10:46:01.490Z,24.44
2022-07-29T10:49:15.177Z,24.19
2022-07-29T10:51:58.060Z,23.99
2022-07-29T10:54:47.211Z,23.36
2022-07-29T10:57:53.710Z,23.83
2022-07-29T11:00:34.746Z,23.67
2022-07-29T11:03:50.865Z,23.68
2022-07-29T11:07:12.801Z,23.63
2022-07-29T11:10:30.969Z,23.75
2022-07-29T11:13:10.853Z,23.34
2022-07-29T11:15:58.291Z,23.60
2022-07-29T11:18:38.593Z,23.86
2022-07-29T11:21:53.966Z,24.13
2022-07-29T11:24:36.829Z,24.14
2022-07-29T11:27:20.090Z,24.31
2022-07-29T11:30:15.467Z,24.13
2022-07-29T11:32:54.951Z,24.29
2022-07-29T11:35:38.135Z,24.66
2022-07-29T11:38:29.447Z,24.78
2022-07-29T11:41:25.625Z,25.23
2022-07-29T11:44:09.480Z,25.29
2022-07-29T11:46:50.637Z,24.95
2022-07-29T11:49:33.308Z,25.08
2022-07-29T11:52:17.222Z,25.40
2022-07-29T11:55:00.762Z,25.25
2022-07-29T11:58:03.990Z,25.69
2022-07-29T12:00:48.949Z,25.64
2022-07-29T12:03:35.387Z,25.56
2022-07-29T12:06:18.185Z,25.77
2022-07-29T12:09:01.133Z,25.42
2022-07-29T12:11:41.680Z,25.77
2022-07-29T12:14:30.541Z,25.80
2022-07-29T12:17:30.451Z,25.81
2022-07-29T12:20:12.435Z,25.89
2022-07-29T12:22:55.637Z,25.73
2022-07-29T12:25:38.010Z,25.60
2022-07-29T12:28:26.570Z,25.61
2022-07-29T12:31:08.172Z,25.66
2022-07-29T12:33:54.268Z,25.73
2022-07-29T12:36:34.432Z,25.91
2022-07-29T12:39:18.041Z,25.99
2022-07-29T12:42:03.829Z,25.55
2022-07-29T12:44:49.447Z,25.64
2022-07-29T12:47:29.496Z,25.69
2022-07-29T12:50:15.422Z,25.71
2022-07-29T12:52:55.636Z,25.67
2022-07-29T12:55:45.203Z,26.04
2022-07-29T12:58:35.970Z,26.06
2022-07-29T13:01:18.191Z,26.29
2022-07-29T13:04:01.356Z,26.34
2022-07-29T13:06:45.766Z,26.52
2022-07-29T13:09:38.699Z,26.68
2022-07-29T13:12:19.010Z,26.69
2022-07-29T13:14:58.735Z,26.68
2022-07-29T13:17:44.343Z,26.72
2022-07-29T13:20:30.424Z,26.84
2022-07-29T13:23:11.025Z,26.98
2022-07-29T13:25:53.000Z,27.12
2022-07-29T13:28:46.313Z,27.25
2022-07-29T13:31:27.169Z,27.43
2022-07-29T13:34:05.824Z,27.58
2022-07-29T13:36:45.030Z,27.52
2022-07-29T13:39:24.937Z,27.64
2022-07-29T13:42:07.907Z,27.54
2022-07-29T13:44:51.739Z,27.68
2022-07-29T13:47:33.339Z,27.78
2022-07-29T13:50:13.677Z,27.96
2022-07-29T13:52:53.853Z,28.03
2022-07-29T13:55:35.439Z,27.83
2022-07-29T13:58:13.557Z,28.00
2022-07-29T14:00:54.958Z,28.11
2022-07-29T14:03:34.353Z,28.23
2022-07-29T14:06:14.394Z,28.23
2022-07-29T14:08:53.936Z,28.16
2022-07-29T14:11:35.905Z,27.97
2022-07-29T14:14:15.196Z,28.03
2022-07-29T14:16:53.796Z,27.84
2022-07-29T14:19:36.928Z,27.57
2022-07-29T14:22:16.233Z,27.44
2022-07-29T14:24:58.023Z,27.82
2022-07-29T14:27:45.494Z,27.87
2022-07-29T14:30:24.002Z,28.10
2022-07-29T14:33:03.979Z,28.07
2022-07-29T14:35:46.274Z,27.99
2022-07-29T14:38:28.219Z,27.75
2022-07-29T14:41:09.913Z,27.81
2022-07-29T14:43:47.805Z,27.78
2022-07-29T14:46:27.282Z,27.96
2022-07-29T14:49:07.505Z,28.17
2022-07-29T14:51:50.997Z,27.95
2022-07-29T14:54:33.504Z,27.98
2022-07-29T14:57:15.044Z,27.87
2022-07-29T14:59:56.420Z,28.00
2022-07-29T15:03:00.356Z,28.11
2022-07-29T15:05:36.496Z,27.95
2022-07-29T15:08:16.216Z,28.05
2022-07-29T15:10:58.380Z,28.13
2022-07-29T15:13:40.982Z,27.84
2022-07-29T15:16:20.586Z,28.08
2022-07-29T15:19:01.275Z,27.77
2022-07-29T15:21:59.233Z,27.61
2022-07-29T15:24:39.739Z,27.59
2022-07-29T15:27:19.485Z,27.66
2022-07-29T15:29:59.189Z,27.83
2022-07-29T15:32:39.069Z,27.75
2022-07-29T15:35:18.928Z,27.86
2022-07-29T15:38:00.808Z,27.60
2022-07-29T15:40:41.143Z,27.49
2022-07-29T15:43:21.478Z,27.70
2022-07-29T15:46:19.271Z,27.66
2022-07-29T15:48:58.808Z,27.44
2022-07-29T15:51:40.523Z,27.39
2022-07-29T15:54:19.994Z,27.49
2022-07-29T15:57:01.748Z,27.50
2022-07-29T15:59:43.800Z,27.40
2022-07-29T16:02:24.166Z,27.63
2022-07-29T16:05:09.286Z,27.62
2022-07-29T16:07:50.113Z,27.53
2022-07-29T16:10:29.897Z,27.49
2022-07-29T16:13:11.719Z,27.40
2022-07-29T16:16:02.637Z,27.43
2022-07-29T16:18:44.009Z,27.34
2022-07-29T16:21:25.836Z,27.44
2022-07-29T16:24:09.321Z,27.33
2022-07-29T16:26:50.297Z,27.31
2022-07-29T16:29:34.130Z,27.25
2022-07-29T16:32:14.083Z,27.09
2022-07-29T16:34:54.484Z,27.02
2022-07-29T16:37:37.104Z,27.00
2022-07-29T16:40:18.590Z,26.95
2022-07-29T16:42:58.061Z,26.89
2022-07-29T16:45:45.525Z,26.89
2022-07-29T16:48:26.076Z,26.91
2022-07-29T16:51:04.311Z,26.99
2022-07-29T16:53:44.830Z,26.96
2022-07-29T16:56:25.091Z,26.98
2022-07-29T16:59:04.902Z,26.69
2022-07-29T17:01:44.734Z,26.53
2022-07-29T17:04:27.401Z,26.44
2022-07-29T17:07:07.541Z,26.34
2022-07-29T17:09:47.293Z,26.44
2022-07-29T17:12:25.995Z,26.44
2022-07-29T17:15:04.925Z,26.35
2022-07-29T17:17:55.407Z,26.27
2022-07-29T17:20:36.561Z,26.26
2022-07-29T17:23:15.938Z,26.16
2022-07-29T17:25:55.803Z,26.04
2022-07-29T17:28:34.400Z,25.77
2022-07-29T17:31:13.922Z,25.76
2022-07-29T17:33:57.104Z,25.61
2022-07-29T17:36:42.045Z,25.49
2022-07-29T17:39:21.626Z,25.42
2022-07-29T17:42:03.124Z,25.36
2022-07-29T17:44:43.052Z,25.26
2022-07-29T17:47:21.014Z,25.07
2022-07-29T17:50:00.431Z,24.94
2022-07-29T17:52:40.810Z,24.90
2022-07-29T17:55:45.155Z,24.87
2022-07-29T17:58:38.856Z,24.63
2022-07-29T18:01:18.123Z,24.57
2022-07-29T18:04:00.544Z,24.58
2022-07-29T18:06:40.075Z,24.45
2022-07-29T18:09:19.802Z,24.30
2022-07-29T18:11:59.503Z,24.20
2022-07-29T18:14:38.489Z,24.05
2022-07-29T18:17:18.345Z,24.01
2022-07-29T18:19:58.947Z,23.96
2022-07-29T18:22:37.747Z,23.92
2022-07-29T18:25:19.473Z,23.87
2022-07-29T18:28:00.727Z,23.79
2022-07-29T18:30:44.968Z,23.67
2022-07-29T18:33:23.149Z,23.60
2022-07-29T18:36:10.563Z,23.56
2022-07-29T18:38:52.772Z,23.47
2022-07-29T18:41:32.254Z,23.38
2022-07-29T18:44:11.756Z,23.22
2022-07-29T18:46:53.454Z,23.30
2022-07-29T18:49:33.189Z,23.37
2022-07-29T18:52:12.388Z,23.31
2022-07-29T18:54:51.270Z,23.27
2022-07-29T18:57:55.246Z,23.27
2022-07-29T19:00:33.068Z,23.25
2022-07-29T19:03:12.746Z,23.31
2022-07-29T19:05:51.320Z,23.28
2022-07-29T19:08:29.428Z,23.18
2022-07-29T19:11:09.062Z,23.13
2022-07-29T19:13:49.871Z,23.05
2022-07-29T19:16:32.508Z,23.01
2022-07-29T19:19:14.420Z,22.91
2022-07-29T19:21:55.541Z,22.82
2022-07-29T19:24:35.931Z,22.67
2022-07-29T19:27:15.744Z,22.54
2022-07-29T19:29:58.927Z,22.37
2022-07-29T19:32:37.621Z,22.17
2022-07-29T19:35:31.018Z,21.93
2022-07-29T19:38:09.756Z,21.71
2022-07-29T19:40:49.237Z,21.64
2022-07-29T19:43:51.112Z,21.51
2022-07-29T19:46:29.078Z,21.38
2022-07-29T19:49:48.825Z,21.35
2022-07-29T19:52:27.128Z,21.26
2022-07-29T19:55:08.067Z,21.19
2022-07-29T19:57:50.971Z,21.10
2022-07-29T20:00:31.230Z,20.98
2022-07-29T20:03:10.687Z,20.90
2022-07-29T20:05:51.281Z,20.76
2022-07-29T20:08:32.717Z,20.68
2022-07-29T20:11:14.113Z,20.58
2022-07-29T20:13:53.396Z,20.45
2022-07-29T20:16:32.950Z,20.42
2022-07-29T20:19:12.877Z,20.38
2022-07-29T20:21:51.576Z,20.39
2022-07-29T20:24:32.318Z,20.34
2022-07-29T20:27:13.625Z,20.23
2022-07-29T20:29:53.652Z,20.22
2022-07-29T20:32:33.537Z,20.22
2022-07-29T20:35:13.477Z,20.17
2022-07-29T20:38:17.788Z,20.14
2022-07-29T20:40:58.603Z,20.14
2022-07-29T20:43:39.226Z,20.13
2022-07-29T20:46:19.625Z,20.04
2022-07-29T20:48:58.134Z,20.03
2022-07-29T20:51:43.782Z,20.00
2022-07-29T20:54:22.902Z,19.98
2022-07-29T20:57:02.650Z,19.96
2022-07-29T20:59:46.391Z,19.94
2022-07-29T21:02:26.436Z,19.88
2022-07-29T21:05:05.400Z,19.86
2022-07-29T21:07:46.792Z,19.79
2022-07-29T21:10:26.263Z,19.76
2022-07-29T21:13:05.774Z,19.69
2022-07-29T21:15:48.148Z,19.69
2022-07-29T21:18:32.587Z,19.60
2022-07-29T21:21:11.811Z,19.63
2022-07-29T21:23:53.116Z,19.53
2022-07-29T21:26:32.640Z,19.60
2022-07-29T21:29:12.512Z,19.56
2022-07-29T21:31:53.053Z,19.55
2022-07-29T21:34:32.597Z,19.53
2022-07-29T21:37:53.196Z,19.47
2022-07-29T21:40:33.927Z,19.42
2022-07-29T21:43:12.918Z,19.42
2022-07-29T21:45:54.398Z,19.42
2022-07-29T21:48:34.872Z,19.40
2022-07-29T21:51:13.467Z,19.36
2022-07-29T21:53:53.057Z,19.30
2022-07-29T21:56:32.784Z,19.23
2022-07-29T21:59:12.873Z,19.21
2022-07-29T22:01:52.456Z,19.13
2022-07-29T22:04:35.717Z,19.06
2022-07-29T22:07:17.237Z,19.06
2022-07-29T22:09:57.049Z,19.04
2022-07-29T22:12:50.705Z,19.05
2022-07-29T22:15:31.009Z,18.94
2022-07-29T22:18:11.029Z,18.97
2022-07-29T22:20:49.770Z,18.90
2022-07-29T22:23:29.898Z,18.92
2022-07-29T22:26:10.224Z,18.93
2022-07-29T22:28:49.169Z,18.91
2022-07-29T22:31:39.014Z,18.90
2022-07-29T22:34:17.400Z,18.88
2022-07-29T22:36:55.524Z,18.85
2022-07-29T22:39:39.624Z,18.80
2022-07-29T22:42:19.468Z,18.82
2022-07-29T22:45:01.259Z,18.80
2022-07-29T22:47:47.861Z,18.81
2022-07-29T22:50:28.467Z,18.82
2022-07-29T22:53:08.385Z,18.83
2022-07-29T22:55:48.058Z,18.76
2022-07-29T22:58:28.213Z,18.72
2022-07-29T23:01:07.851Z,18.73
2022-07-29T23:03:50.890Z,18.70
2022-07-29T23:06:34.622Z,18.66
2022-07-29T23:09:13.957Z,18.68
2022-07-29T23:11:53.341Z,18.68
2022-07-29T23:14:33.176Z,18.71
2022-07-29T23:17:11.800Z,18.70
2022-07-29T23:19:52.866Z,18.71
2022-07-29T23:22:33.364Z,18.72
2022-07-29T23:25:14.057Z,18.68
2022-07-29T23:27:52.522Z,18.65
2022-07-29T23:30:32.400Z,18.65
2022-07-29T23:33:11.669Z,18.62
2022-07-29T23:35:50.363Z,18.58
2022-07-29T23:38:50.708Z,18.57
2022-07-29T23:41:31.601Z,18.57
2022-07-29T23:44:11.831Z,18.54
2022-07-29T23:46:53.428Z,18.53
2022-07-29T23:49:31.865Z,18.52
2022-07-29T23:52:11.225Z,18.48
2022-07-29T23:54:49.840Z,18.45
2022-07-29T23:57:31.011Z,18.41
